Time;durP1;ratioP1;P1;durP2;ratioP2;P2;SDS_P1;SDS_P2;PMS_P1;PMS_P2;Temp;Humidity;BMP_temperature;BMP_pressure;BME280_temperature;BME280_humidity;BME280_pressure;Samples;Min_cycle;Max_cycle;Signal;HPM_P1;HPM_P2
2023/09/06 00:02:16;;;;;;;4.50;3.80;;;;;;;15.95;76.18;95269.16;5068601;28;20410;-69
2023/09/06 00:04:41;;;;;;;4.07;3.67;;;;;;;16.01;77.45;95259.88;5046878;28;20029;-70
2023/09/06 00:07:07;;;;;;;5.22;4.00;;;;;;;15.86;76.77;95238.63;5049641;28;20025;-69
2023/09/06 00:09:32;;;;;;;5.00;3.67;;;;;;;15.96;77.18;95249.84;5060174;28;20040;-70
2023/09/06 00:11:58;;;;;;;4.32;3.70;;;;;;;15.95;76.91;95239.53;5050521;28;20036;-71
2023/09/06 00:14:23;;;;;;;5.15;3.78;;;;;;;15.90;77.58;95253.06;5045044;28;20036;-70
2023/09/06 00:16:48;;;;;;;7.97;3.97;;;;;;;15.96;77.71;95252.44;5050379;28;20044;-70
2023/09/06 00:19:17;;;;;;;4.95;3.78;;;;;;;15.78;76.88;95231.50;5067092;28;20639;-69
2023/09/06 00:21:43;;;;;;;4.38;3.70;;;;;;;15.97;77.09;95241.03;5040175;28;20515;-70
2023/09/06 00:24:12;;;;;;;4.72;3.80;;;;;;;15.92;78.55;95240.63;5054749;28;20025;-69
2023/09/06 00:26:38;;;;;;;5.28;4.03;;;;;;;15.96;77.54;95246.41;5054284;28;20115;-69
2023/09/06 00:29:04;;;;;;;4.93;3.72;;;;;;;15.95;78.62;95242.97;5070923;28;20024;-69
2023/09/06 00:31:29;;;;;;;4.15;3.72;;;;;;;15.87;78.94;95242.88;5072615;28;20036;-69
2023/09/06 00:33:55;;;;;;;6.55;3.63;;;;;;;15.63;78.81;95231.16;5072694;28;20036;-70
2023/09/06 00:36:20;;;;;;;4.60;3.65;;;;;;;15.75;78.57;95223.13;5072845;28;20039;-70
2023/09/06 00:38:45;;;;;;;4.82;3.97;;;;;;;15.71;78.72;95253.19;5073886;28;20024;-69
2023/09/06 00:41:11;;;;;;;4.18;3.78;;;;;;;15.57;79.07;95242.25;5059482;28;20037;-69
2023/09/06 00:43:36;;;;;;;6.97;3.88;;;;;;;15.69;79.31;95239.44;5053858;28;20028;-69
2023/09/06 00:46:07;;;;;;;4.10;3.70;;;;;;;15.74;78.81;95242.41;5052604;28;20029;-70
2023/09/06 00:48:33;;;;;;;3.80;3.40;;;;;;;15.78;77.88;95239.34;5053852;28;20028;-70
2023/09/06 00:50:58;;;;;;;3.78;3.40;;;;;;;15.64;78.22;95238.03;5054414;28;20052;-71
2023/09/06 00:53:24;;;;;;;4.53;3.80;;;;;;;15.70;78.13;95225.38;5073759;28;20074;-71
2023/09/06 00:55:50;;;;;;;5.60;3.78;;;;;;;15.53;78.81;95233.00;5072350;28;20036;-71
2023/09/06 00:58:17;;;;;;;5.32;3.80;;;;;;;15.64;78.59;95208.41;5071680;28;20302;-71
2023/09/06 01:00:46;;;;;;;3.95;3.45;;;;;;;15.78;78.02;95213.16;5071766;28;20043;-71
2023/09/06 01:03:12;;;;;;;4.30;3.33;;;;;;;15.80;78.31;95210.41;5073029;28;20047;-71
2023/09/06 01:05:49;;;;;;;5.05;3.40;;;;;;;15.81;78.38;95219.91;5071912;28;20064;-73
2023/09/06 01:08:20;;;;;;;4.78;3.47;;;;;;;15.82;78.52;95234.63;5047567;28;20111;-71
2023/09/06 01:10:46;;;;;;;3.97;3.58;;;;;;;15.70;78.40;95233.22;5071992;28;20039;-71
2023/09/06 01:13:11;;;;;;;3.90;3.28;;;;;;;15.68;78.03;95227.28;5072032;28;20434;-71
2023/09/06 01:15:42;;;;;;;5.03;3.30;;;;;;;15.74;77.59;95226.69;5055140;28;20706;-71
2023/09/06 01:18:07;;;;;;;;;;;;;;;15.69;77.87;95228.97;5040760;28;20036;-71
2023/09/06 01:20:52;;;;;;;4.75;2.85;;;;;;;15.75;78.39;95215.28;5051734;28;19913;-71
2023/09/06 01:23:33;;;;;;;4.38;3.03;;;;;;;15.82;77.67;95224.16;5046925;28;20096;-71
2023/09/06 01:25:59;;;;;;;4.32;3.40;;;;;;;15.78;77.73;95228.88;5063039;28;20029;-71
2023/09/06 01:28:27;;;;;;;4.88;3.13;;;;;;;15.69;77.65;95227.16;5049646;28;20030;-72
2023/09/06 01:30:53;;;;;;;4.10;3.55;;;;;;;15.79;78.02;95234.94;5071474;28;20044;-71
2023/09/06 01:33:19;;;;;;;3.50;3.00;;;;;;;15.79;77.81;95234.94;5071705;28;20486;-71
2023/09/06 01:35:44;;;;;;;4.93;3.53;;;;;;;15.63;77.66;95225.13;5037250;28;20041;-71
2023/09/06 01:38:11;;;;;;;3.58;3.03;;;;;;;15.55;77.94;95202.28;5071586;28;20036;-71
2023/09/06 01:40:37;;;;;;;5.85;3.60;;;;;;;15.65;77.43;95228.38;5069194;28;20494;-71
2023/09/06 01:43:03;;;;;;;4.20;3.45;;;;;;;15.57;77.53;95218.66;5054961;28;20093;-71
2023/09/06 01:45:29;;;;;;;4.55;3.70;;;;;;;15.57;77.61;95223.91;5070963;28;20498;-71
2023/09/06 01:47:55;;;;;;;4.57;3.47;;;;;;;15.50;77.14;95198.47;5070928;28;20123;-71
2023/09/06 01:50:20;;;;;;;3.83;3.38;;;;;;;15.69;77.30;95218.50;5054282;28;20128;-71
2023/09/06 01:52:46;;;;;;;3.92;3.40;;;;;;;15.70;77.04;95214.88;5053667;28;20024;-71
2023/09/06 01:55:12;;;;;;;5.20;3.75;;;;;;;15.65;77.35;95217.91;5070805;28;20043;-71
2023/09/06 01:57:37;;;;;;;4.00;3.60;;;;;;;15.59;77.00;95203.63;5072488;28;20375;-71
2023/09/06 02:00:18;;;;;;;4.43;3.28;;;;;;;15.63;76.78;95220.69;5053702;28;20040;-71
2023/09/06 02:02:44;;;;;;;4.05;3.65;;;;;;;15.62;77.26;95213.78;5052736;28;20061;-71
2023/09/06 02:05:09;;;;;;;4.68;3.53;;;;;;;15.77;77.07;95218.56;5067302;28;20081;-71
2023/09/06 02:07:34;;;;;;;5.65;3.50;;;;;;;15.68;76.85;95211.56;5072319;28;20037;-71
2023/09/06 02:10:00;;;;;;;5.10;3.30;;;;;;;15.52;76.74;95196.53;5072093;28;20016;-71
2023/09/06 02:12:25;;;;;;;6.22;3.60;;;;;;;15.37;77.26;95193.56;5071201;28;20036;-71
2023/09/06 02:14:52;;;;;;;4.97;3.75;;;;;;;15.62;76.02;95219.03;5070720;28;20086;-71
2023/09/06 02:17:20;;;;;;;4.82;3.75;;;;;;;15.47;76.86;95219.69;5072512;28;20527;-71
2023/09/06 02:19:45;;;;;;;4.35;3.80;;;;;;;15.31;77.16;95212.47;5069353;28;20423;-70
2023/09/06 02:22:11;;;;;;;4.80;3.63;;;;;;;15.38;77.23;95218.78;5072012;28;20043;-70
2023/09/06 02:24:39;;;;;;;4.63;4.00;;;;;;;15.32;77.66;95221.97;5070696;28;20039;-71
2023/09/06 02:27:05;;;;;;;6.25;4.20;;;;;;;15.24;77.70;95219.25;5070826;28;20033;-71
2023/09/06 02:29:30;;;;;;;6.68;3.75;;;;;;;15.09;78.25;95211.88;5070325;28;20025;-71
2023/09/06 02:31:56;;;;;;;4.82;3.70;;;;;;;15.27;78.16;95230.28;5054018;28;20032;-71
2023/09/06 02:34:21;;;;;;;6.88;4.15;;;;;;;15.26;78.08;95240.88;5071741;28;20028;-71
2023/09/06 02:36:47;;;;;;;4.85;4.15;;;;;;;15.28;77.47;95220.63;5070586;28;20482;-71
2023/09/06 02:39:13;;;;;;;6.65;3.95;;;;;;;15.33;77.41;95226.25;5069710;28;20555;-70
2023/09/06 02:41:38;;;;;;;4.15;3.75;;;;;;;15.39;76.60;95221.25;5070317;28;20044;-70
2023/09/06 02:44:05;;;;;;;4.72;3.80;;;;;;;15.42;76.26;95217.50;5069911;28;20025;-71
2023/09/06 02:46:33;;;;;;;4.85;4.28;;;;;;;15.38;75.51;95221.41;5070261;28;20561;-71
2023/09/06 02:49:10;;;;;;;5.57;4.32;;;;;;;15.14;76.49;95212.28;5070567;28;20039;-71
2023/09/06 02:51:42;;;;;;;8.80;4.25;;;;;;;15.01;77.69;95209.16;5070285;28;20522;-71
2023/09/06 02:54:10;;;;;;;7.25;4.20;;;;;;;15.04;78.08;95219.34;5054457;28;20379;-71
2023/09/06 02:56:39;;;;;;;6.82;4.47;;;;;;;14.82;77.55;95198.78;5036468;28;20032;-71
2023/09/06 02:59:07;;;;;;;9.20;4.35;;;;;;;14.93;77.49;95224.75;5071257;28;20027;-71
2023/09/06 03:01:35;;;;;;;5.55;4.38;;;;;;;14.95;78.32;95225.44;5071382;28;20036;-71
2023/09/06 03:04:06;;;;;;;5.65;4.70;;;;;;;14.84;78.99;95220.41;5050046;28;20025;-71
2023/09/06 03:06:33;;;;;;;6.57;4.57;;;;;;;14.86;78.34;95229.75;5064264;28;20042;-71
2023/09/06 03:08:59;;;;;;;7.68;4.43;;;;;;;14.99;78.20;95232.06;5069939;28;20052;-71
2023/09/06 03:11:25;;;;;;;5.93;4.35;;;;;;;15.06;77.67;95237.53;5070893;28;20125;-71
2023/09/06 03:13:55;;;;;;;5.80;4.40;;;;;;;15.00;78.33;95233.69;5059960;28;20112;-71
2023/09/06 03:16:22;;;;;;;6.72;4.15;;;;;;;15.17;77.31;95234.72;5068474;28;20060;-71
2023/09/06 03:18:49;;;;;;;7.00;4.40;;;;;;;14.99;78.40;95203.28;5069418;28;20039;-71
2023/09/06 03:21:16;;;;;;;5.60;4.95;;;;;;;15.18;77.52;95231.13;5069422;28;20561;-71
2023/09/06 03:23:44;;;;;;;7.40;4.25;;;;;;;15.13;77.66;95210.66;5067260;28;20111;-71
2023/09/06 03:26:10;;;;;;;6.20;4.68;;;;;;;15.29;76.32;95236.16;5069438;28;20123;-71
2023/09/06 03:28:42;;;;;;;5.90;4.20;;;;;;;15.23;77.36;95217.63;5053723;28;20060;-71
2023/09/06 03:31:12;;;;;;;5.22;4.70;;;;;;;15.32;78.21;95228.06;5054050;28;20040;-71
2023/09/06 03:33:39;;;;;;;;;;;;;;;15.40;76.88;95224.69;5055580;28;20036;-71
2023/09/06 03:36:07;;;;;;;7.15;4.57;;;;;;;15.35;77.01;95237.38;5051032;28;19921;-71
2023/09/06 03:38:36;;;;;;;5.78;4.50;;;;;;;15.35;78.34;95224.28;5050733;28;20033;-71
2023/09/06 03:41:02;;;;;;;4.78;4.32;;;;;;;15.19;78.47;95222.31;5032466;28;20104;-70
2023/09/06 03:43:32;;;;;;;7.22;4.47;;;;;;;15.38;77.25;95224.03;5055640;28;20020;-70
2023/09/06 03:45:58;;;;;;;5.97;4.45;;;;;;;15.31;77.38;95236.84;5053413;28;20166;-71
2023/09/06 03:48:26;;;;;;;6.03;4.65;;;;;;;15.34;78.12;95233.13;5052954;28;20063;-71
2023/09/06 03:50:57;;;;;;;8.23;4.32;;;;;;;15.31;77.14;95233.41;5068404;28;20490;-71
2023/09/06 03:53:26;;;;;;;9.48;4.38;;;;;;;15.39;78.07;95221.25;5070726;28;20123;-70
2023/09/06 03:55:57;;;;;;;5.55;4.25;;;;;;;15.57;76.75;95237.00;5054065;28;20098;-71
2023/09/06 03:58:23;;;;;;;5.35;4.30;;;;;;;15.55;76.45;95227.66;5057860;28;20021;-71
2023/09/06 04:00:51;;;;;;;6.57;4.50;;;;;;;15.61;75.11;95243.56;5055001;28;20070;-71
2023/09/06 04:03:18;;;;;;;5.40;4.20;;;;;;;15.55;75.62;95238.94;5053691;28;20461;-71
2023/09/06 04:05:47;;;;;;;5.65;4.20;;;;;;;15.71;74.95;95237.47;5036967;28;20029;-71
2023/09/06 04:08:18;;;;;;;4.50;3.70;;;;;;;15.64;74.69;95238.03;5053362;28;20029;-71
2023/09/06 04:10:44;;;;;;;4.97;4.47;;;;;;;15.75;77.50;95241.47;5059908;28;20101;-71
2023/09/06 04:13:11;;;;;;;4.60;4.18;;;;;;;15.72;77.65;95228.66;5056557;28;20482;-71
2023/09/06 04:15:36;;;;;;;6.70;4.75;;;;;;;15.73;76.52;95230.31;5056595;28;20016;-71
2023/09/06 04:18:03;;;;;;;4.78;4.05;;;;;;;15.80;76.63;95241.84;5073315;28;20086;-72
2023/09/06 04:20:36;;;;;;;6.35;4.13;;;;;;;15.73;76.17;95246.00;5072838;28;20036;-71
2023/09/06 04:23:04;;;;;;;5.55;4.30;;;;;;;15.75;76.15;95249.31;5057397;28;20020;-70
2023/09/06 04:25:30;;;;;;;5.28;4.53;;;;;;;15.67;76.51;95246.59;5073052;28;20067;-71
2023/09/06 04:27:55;;;;;;;4.65;4.15;;;;;;;15.63;76.69;95231.16;5072985;28;20032;-71
2023/09/06 04:30:22;;;;;;;7.38;4.40;;;;;;;15.86;77.09;95251.72;5071822;28;20413;-71
2023/09/06 04:32:47;;;;;;;5.70;4.25;;;;;;;15.84;77.75;95245.81;5071128;28;20509;-71
2023/09/06 04:35:15;;;;;;;5.85;4.60;;;;;;;15.97;76.75;95259.38;5072055;28;20025;-70
2023/09/06 04:37:40;;;;;;;7.13;4.93;;;;;;;15.95;78.42;95263.91;5037963;28;20037;-71
2023/09/06 04:40:11;;;;;;;6.57;3.97;;;;;;;15.89;76.34;95253.22;5073117;28;20037;-71
2023/09/06 04:42:39;;;;;;;4.50;3.90;;;;;;;16.01;74.78;95255.47;5072510;28;20031;-70
2023/09/06 04:45:05;;;;;;;6.72;4.18;;;;;;;15.84;75.31;95249.25;5071058;28;20032;-70
2023/09/06 04:47:31;;;;;;;5.82;4.20;;;;;;;15.85;76.57;95256.16;5056646;28;20032;-70
2023/09/06 04:49:56;;;;;;;4.50;4.05;;;;;;;15.93;77.01;95259.81;5055206;28;20051;-71
2023/09/06 04:52:22;;;;;;;6.10;4.20;;;;;;;15.92;76.22;95266.84;5068483;28;20033;-70
2023/09/06 04:54:48;;;;;;;6.63;4.50;;;;;;;15.95;72.47;95250.00;5035882;28;20029;-70
2023/09/06 04:57:16;;;;;;;5.68;4.75;;;;;;;15.98;73.70;95255.75;5065540;28;20062;-70
2023/09/06 04:59:41;;;;;;;5.47;4.03;;;;;;;16.11;71.24;95268.50;5055970;28;20050;-71
2023/09/06 05:02:07;;;;;;;6.85;4.65;;;;;;;16.06;73.93;95263.69;5072163;28;20029;-71
2023/09/06 05:04:34;;;;;;;4.85;4.10;;;;;;;16.27;71.67;95276.50;5055626;28;20032;-71
2023/09/06 05:07:00;;;;;;;8.82;4.47;;;;;;;16.11;74.18;95271.13;5072676;28;20028;-71
2023/09/06 05:09:25;;;;;;;4.65;4.25;;;;;;;16.28;70.97;95275.53;5055118;28;20035;-71
2023/09/06 05:11:51;;;;;;;5.20;3.97;;;;;;;16.28;70.47;95277.31;5072313;28;20468;-70
2023/09/06 05:14:16;;;;;;;5.00;4.30;;;;;;;16.29;70.04;95269.28;5070975;28;20055;-71
2023/09/06 05:16:42;;;;;;;6.80;4.55;;;;;;;16.15;74.52;95277.69;5071569;28;20418;-71
2023/09/06 05:19:07;;;;;;;5.88;4.07;;;;;;;16.16;74.13;95278.50;5072006;28;20466;-71
2023/09/06 05:21:34;;;;;;;8.60;4.50;;;;;;;16.30;76.56;95280.63;5073369;28;20036;-72
2023/09/06 05:24:00;;;;;;;6.72;4.65;;;;;;;16.06;74.57;95253.22;5067499;28;20029;-71
2023/09/06 05:26:25;;;;;;;6.40;4.10;;;;;;;16.30;73.54;95285.88;5051939;28;20413;-72
2023/09/06 05:28:51;;;;;;;6.15;3.85;;;;;;;16.41;71.50;95267.28;5063685;28;20036;-72
2023/09/06 05:31:16;;;;;;;6.50;4.20;;;;;;;16.45;72.11;95280.91;5057426;28;20430;-71
2023/09/06 05:33:43;;;;;;;7.50;4.40;;;;;;;16.41;73.07;95277.78;5059596;28;20433;-71
2023/09/06 05:36:09;;;;;;;4.88;4.15;;;;;;;16.54;74.17;95288.69;5068691;28;20028;-72
2023/09/06 05:38:35;;;;;;;7.18;4.68;;;;;;;16.67;75.81;95292.72;5060659;28;20551;-71
2023/09/06 05:41:00;;;;;;;4.70;3.92;;;;;;;16.59;71.77;95288.22;5050251;28;20119;-72
2023/09/06 05:43:25;;;;;;;5.65;4.15;;;;;;;16.68;71.45;95303.03;5061177;28;20021;-72
2023/09/06 05:45:51;;;;;;;6.13;3.92;;;;;;;16.66;73.70;95302.41;5070885;28;20032;-72
2023/09/06 05:48:16;;;;;;;6.00;3.88;;;;;;;16.61;73.52;95295.97;5059866;28;20086;-71
2023/09/06 05:50:42;;;;;;;4.72;4.32;;;;;;;16.52;76.04;95269.66;5052097;28;20075;-72
2023/09/06 05:53:07;;;;;;;6.15;4.75;;;;;;;16.73;74.24;95299.97;5057220;28;20029;-71
2023/09/06 05:55:32;;;;;;;7.43;4.40;;;;;;;16.90;74.69;95308.81;5057180;28;20021;-76
2023/09/06 05:57:58;;;;;;;6.30;4.28;;;;;;;16.65;75.17;95290.22;5071658;28;20545;-72
2023/09/06 06:00:26;;;;;;;5.70;4.50;;;;;;;16.79;75.88;95312.50;5059684;28;20028;-72
2023/09/06 06:02:51;;;;;;;6.30;3.83;;;;;;;16.75;67.88;95303.28;5060634;28;20036;-71
2023/09/06 06:05:18;;;;;;;4.03;3.63;;;;;;;16.84;71.79;95302.38;5047245;28;20025;-70
2023/09/06 06:07:44;;;;;;;4.78;4.38;;;;;;;17.04;75.19;95315.28;5067379;28;20024;-70
2023/09/06 06:10:12;;;;;;;9.90;6.63;;;;;;;16.89;75.96;95318.47;5067368;28;20467;-72
2023/09/06 06:12:38;;;;;;;9.35;7.78;;;;;;;17.05;74.27;95325.66;5060956;28;20064;-71
2023/09/06 06:15:05;;;;;;;4.47;4.07;;;;;;;16.98;69.75;95321.97;5041946;28;20021;-72
2023/09/06 06:17:31;;;;;;;5.40;3.72;;;;;;;17.05;69.20;95332.69;5061689;28;20029;-72
2023/09/06 06:19:56;;;;;;;7.07;3.97;;;;;;;17.01;70.33;95323.47;5060711;28;20078;-73
2023/09/06 06:22:21;;;;;;;6.10;4.03;;;;;;;16.98;70.88;95320.19;5052509;28;20017;-74
2023/09/06 06:24:47;;;;;;;6.30;3.88;;;;;;;17.10;69.24;95333.88;5057733;28;20017;-72
2023/09/06 06:27:13;;;;;;;5.90;4.55;;;;;;;17.05;69.34;95322.19;5067758;28;20105;-72
2023/09/06 06:29:38;;;;;;;7.53;4.22;;;;;;;17.06;70.81;95318.59;5051714;28;20082;-69
2023/09/06 06:32:04;;;;;;;6.68;4.53;;;;;;;17.13;70.05;95337.97;5055531;28;20041;-69
2023/09/06 06:34:30;;;;;;;4.75;4.18;;;;;;;17.05;69.76;95338.78;5052719;28;20025;-69
2023/09/06 06:36:55;;;;;;;4.55;4.07;;;;;;;17.35;68.36;95340.06;5053260;28;20041;-70
2023/09/06 06:39:20;;;;;;;5.90;4.82;;;;;;;17.27;68.58;95319.03;5031488;28;20009;-70
2023/09/06 06:41:46;;;;;;;4.35;3.90;;;;;;;17.48;66.62;95347.53;5033204;28;20044;-68
2023/09/06 06:44:11;;;;;;;4.90;3.60;;;;;;;17.51;66.09;95356.91;5063023;28;20020;-70
2023/09/06 06:46:37;;;;;;;6.50;3.95;;;;;;;17.43;66.21;95345.38;5067074;28;20028;-69
2023/09/06 06:49:07;;;;;;;6.22;3.97;;;;;;;17.58;65.29;95352.69;5052906;28;20029;-82
2023/09/06 06:51:40;;;;;;;5.25;3.72;;;;;;;17.49;66.71;95358.88;5049598;28;20026;-70
2023/09/06 06:54:09;;;;;;;5.45;3.75;;;;;;;17.60;66.38;95362.03;5062190;28;20478;-76
2023/09/06 06:56:35;;;;;;;6.60;3.78;;;;;;;17.59;66.37;95362.22;5033322;28;20168;-76
2023/09/06 06:59:01;;;;;;;4.97;3.95;;;;;;;17.60;66.65;95366.47;5063273;28;20107;-76
2023/09/06 07:01:27;;;;;;;5.03;3.85;;;;;;;17.65;67.40;95362.41;5060701;28;20033;-76
2023/09/06 07:03:56;;;;;;;5.13;3.90;;;;;;;17.65;66.68;95357.16;5067983;28;20044;-76
2023/09/06 07:06:23;;;;;;;4.63;3.50;;;;;;;17.85;65.11;95365.63;5051656;28;20033;-76
2023/09/06 07:08:49;;;;;;;5.55;3.53;;;;;;;17.48;66.04;95338.84;5055752;28;20032;-76
2023/09/06 07:11:16;;;;;;;5.18;3.67;;;;;;;17.85;65.41;95368.25;5061870;28;20078;-75
2023/09/06 07:13:42;;;;;;;7.25;3.90;;;;;;;17.83;65.81;95374.69;5056843;28;20033;-78
2023/09/06 07:16:08;;;;;;;5.55;3.55;;;;;;;17.99;64.60;95374.72;5064044;28;20075;-74
2023/09/06 07:18:34;;;;;;;6.13;3.90;;;;;;;17.89;65.56;95363.53;5047981;28;20058;-74
2023/09/06 07:20:59;;;;;;;4.10;3.63;;;;;;;17.98;64.62;95359.13;5051185;28;20075;-74
2023/09/06 07:23:26;;;;;;;4.45;3.72;;;;;;;17.83;63.66;95348.41;5068168;28;20286;-74
2023/09/06 07:25:52;;;;;;;8.52;3.75;;;;;;;17.91;63.60;95371.25;5036338;28;20059;-74
2023/09/06 07:28:17;;;;;;;5.30;3.75;;;;;;;17.95;63.46;95367.31;5052637;28;20040;-75
2023/09/06 07:30:43;;;;;;;5.55;3.88;;;;;;;18.05;63.40;95370.63;5051825;28;20090;-76
2023/09/06 07:33:08;;;;;;;4.78;3.53;;;;;;;18.12;63.42;95369.03;5045275;28;20387;-76
2023/09/06 07:35:34;;;;;;;5.05;4.10;;;;;;;18.12;64.44;95358.50;5028646;28;20032;-78
2023/09/06 07:38:00;;;;;;;4.88;3.78;;;;;;;18.43;62.37;95360.53;5033029;28;20025;-79
2023/09/06 07:40:26;;;;;;;5.18;3.70;;;;;;;18.20;62.50;95350.63;5024729;28;20036;-79
2023/09/06 07:42:52;;;;;;;5.10;3.83;;;;;;;18.33;62.98;95349.34;5048176;28;20040;-77
2023/09/06 07:45:17;;;;;;;5.57;3.83;;;;;;;18.42;62.61;95348.38;5043564;28;20102;-78
2023/09/06 07:47:43;;;;;;;5.63;3.90;;;;;;;18.55;62.47;95338.19;5042831;28;20033;-77
2023/09/06 07:50:11;;;;;;;5.18;3.70;;;;;;;18.67;61.63;95347.41;5056034;28;20135;-77
2023/09/06 07:52:38;;;;;;;6.82;3.70;;;;;;;18.61;62.01;95339.34;5038920;28;20575;-77
2023/09/06 07:55:07;;;;;;;4.18;3.78;;;;;;;18.73;61.52;95341.50;5039675;28;20037;-77
2023/09/06 07:57:33;;;;;;;5.07;3.83;;;;;;;18.87;61.59;95339.22;5034963;28;20033;-76
2023/09/06 07:59:58;;;;;;;6.18;4.10;;;;;;;19.07;61.31;95345.78;5053179;28;20039;-78
2023/09/06 08:02:24;;;;;;;5.10;4.07;;;;;;;19.11;58.88;95331.31;5064954;28;20033;-78
2023/09/06 08:04:50;;;;;;;4.35;3.83;;;;;;;19.10;60.73;95342.81;5061301;28;20499;-77
2023/09/06 08:07:16;;;;;;;5.80;4.03;;;;;;;19.16;60.27;95344.78;5058791;28;20494;-79
2023/09/06 08:09:42;;;;;;;6.40;3.47;;;;;;;19.62;58.72;95337.09;5016754;28;20033;-78
2023/09/06 08:12:07;;;;;;;5.70;4.10;;;;;;;19.77;59.71;95341.69;5017100;28;20091;-78
2023/09/06 08:14:33;;;;;;;4.53;3.90;;;;;;;20.11;58.90;95345.81;5050913;28;20513;-78
2023/09/06 08:16:58;;;;;;;5.97;3.92;;;;;;;20.30;57.86;95342.75;5016968;28;20140;-77
2023/09/06 08:19:24;;;;;;;5.07;3.95;;;;;;;20.56;55.55;95354.81;5049240;28;20021;-78
2023/09/06 08:21:49;;;;;;;6.22;3.90;;;;;;;20.63;55.79;95355.75;5049557;28;20044;-78
2023/09/06 08:24:17;;;;;;;5.85;4.20;;;;;;;20.61;55.14;95348.00;5016259;28;20395;-77
2023/09/06 08:26:42;;;;;;;4.88;4.13;;;;;;;20.68;54.89;95356.88;5017224;28;20132;-77
2023/09/06 08:29:08;;;;;;;5.10;3.83;;;;;;;20.87;53.98;95352.13;5049491;28;20398;-77
2023/09/06 08:31:33;;;;;;;6.20;4.35;;;;;;;20.67;55.43;95342.03;5033133;28;20021;-77
2023/09/06 08:33:59;;;;;;;6.68;4.10;;;;;;;20.73;56.53;95343.97;5033076;28;20072;-78
2023/09/06 08:36:24;;;;;;;5.00;4.20;;;;;;;20.86;55.95;95346.00;5033033;28;20039;-77
2023/09/06 08:38:50;;;;;;;7.70;3.80;;;;;;;20.68;55.97;95334.94;5016313;28;20242;-77
2023/09/06 08:41:16;;;;;;;6.00;3.85;;;;;;;21.15;54.47;95345.25;5033007;28;20044;-77
2023/09/06 08:43:42;;;;;;;5.85;3.85;;;;;;;20.96;54.34;95346.56;5050775;28;20079;-77
2023/09/06 08:46:19;;;;;;;4.55;3.83;;;;;;;20.71;54.43;95347.78;5020342;28;20040;-78
2023/09/06 08:48:45;;;;;;;6.55;4.15;;;;;;;20.89;54.09;95332.44;5037758;28;20051;-77
2023/09/06 08:51:11;;;;;;;8.43;4.20;;;;;;;21.14;54.96;95343.59;5036302;28;20498;-77
2023/09/06 08:53:42;;;;;;;6.10;4.30;;;;;;;21.06;55.01;95338.41;5020528;28;20044;-77
2023/09/06 08:56:08;;;;;;;5.30;4.07;;;;;;;20.98;54.37;95344.59;5037110;28;20117;-78
2023/09/06 08:58:33;;;;;;;8.27;4.20;;;;;;;20.93;55.52;95346.94;5019930;28;20037;-78
2023/09/06 09:00:59;;;;;;;5.10;4.00;;;;;;;20.66;55.08;95348.31;5019483;28;20024;-77
2023/09/06 09:03:24;;;;;;;4.75;4.25;;;;;;;20.62;54.75;95340.94;5036459;28;20029;-75
2023/09/06 09:05:50;;;;;;;6.40;3.95;;;;;;;20.62;54.80;95319.81;5019588;28;20295;-75
2023/09/06 09:08:15;;;;;;;6.05;3.63;;;;;;;21.07;53.99;95355.09;5036065;28;20033;-73
2023/09/06 09:10:42;;;;;;;6.97;4.05;;;;;;;20.90;54.08;95320.88;5053511;28;20025;-73
2023/09/06 09:13:11;;;;;;;5.60;3.95;;;;;;;20.83;54.02;95325.22;5060435;28;20029;-73
2023/09/06 09:15:37;;;;;;;5.10;4.13;;;;;;;20.94;53.95;95337.19;5051446;28;20029;-78
2023/09/06 09:18:12;;;;;;;5.68;4.03;;;;;;;20.97;53.73;95344.75;5026406;28;20036;-78
2023/09/06 09:20:41;;;;;;;4.57;3.92;;;;;;;20.78;53.86;95339.97;5066539;28;20056;-78
2023/09/06 09:23:14;;;;;;;5.03;4.20;;;;;;;20.90;53.90;95347.28;5053823;28;20044;-78
2023/09/06 09:25:49;;;;;;;4.65;4.10;;;;;;;20.93;53.29;95338.19;5054468;28;20040;-77
2023/09/06 09:28:15;;;;;;;7.10;5.32;;;;;;;20.93;54.03;95336.38;5050149;28;20482;-78
2023/09/06 09:30:40;;;;;;;5.75;4.60;;;;;;;21.25;53.25;95338.88;5063023;28;20064;-78
2023/09/06 09:33:06;;;;;;;7.72;4.72;;;;;;;20.92;53.27;95345.31;5050165;28;20402;-78
2023/09/06 09:35:32;;;;;;;5.95;4.10;;;;;;;20.90;52.94;95331.47;5045599;28;20031;-78
2023/09/06 09:37:58;;;;;;;6.65;4.68;;;;;;;21.15;54.22;95355.00;5054826;28;20031;-78
2023/09/06 09:40:34;;;;;;;6.40;4.05;;;;;;;21.25;54.45;95349.47;5018485;28;20036;-79
2023/09/06 09:43:01;;;;;;;4.65;4.07;;;;;;;21.38;52.81;95344.41;5052078;28;20094;-78
2023/09/06 09:45:30;;;;;;;5.03;4.30;;;;;;;21.34;53.38;95338.66;5017814;28;20291;-78
2023/09/06 09:47:56;;;;;;;4.85;3.78;;;;;;;21.50;52.01;95329.72;5046175;28;20524;-78
2023/09/06 09:50:22;;;;;;;4.68;4.10;;;;;;;21.80;51.65;95340.31;5054242;28;20044;-78
2023/09/06 09:52:47;;;;;;;7.10;4.05;;;;;;;21.90;52.25;95347.94;5050689;28;20414;-75
2023/09/06 09:55:15;;;;;;;5.47;4.70;;;;;;;21.89;52.49;95346.31;5047243;28;20028;-74
2023/09/06 09:57:42;;;;;;;8.15;4.40;;;;;;;22.02;51.90;95344.66;5067545;28;20028;-78
2023/09/06 10:00:08;;;;;;;6.78;4.40;;;;;;;21.96;51.74;95336.66;5040782;28;20490;-78
2023/09/06 10:02:35;;;;;;;5.75;4.40;;;;;;;22.09;51.76;95335.00;5040884;28;20481;-78
2023/09/06 10:05:00;;;;;;;5.13;4.53;;;;;;;22.13;51.78;95332.78;5053039;28;20101;-79
2023/09/06 10:07:26;;;;;;;6.60;4.70;;;;;;;21.83;52.11;95314.31;5046234;28;20083;-78
2023/09/06 10:09:51;;;;;;;4.80;4.30;;;;;;;21.92;53.62;95330.06;5034649;28;20029;-78
2023/09/06 10:12:17;;;;;;;5.53;4.65;;;;;;;22.06;53.31;95319.50;5036508;28;20044;-78
2023/09/06 10:14:42;;;;;;;5.57;4.13;;;;;;;22.19;51.36;95321.47;5037471;28;20024;-78
2023/09/06 10:17:08;;;;;;;6.63;4.68;;;;;;;22.21;52.55;95322.13;5056548;28;20506;-78
2023/09/06 10:19:35;;;;;;;8.52;4.78;;;;;;;22.03;53.60;95301.31;5017785;28;20115;-79
2023/09/06 10:22:01;;;;;;;6.22;4.50;;;;;;;22.13;52.52;95300.22;5034822;28;20036;-78
2023/09/06 10:24:30;;;;;;;6.00;5.10;;;;;;;22.17;49.18;95315.53;5053643;28;20031;-78
2023/09/06 10:26:56;;;;;;;7.55;5.22;;;;;;;22.02;52.05;95317.41;5052321;28;20529;-79
2023/09/06 10:29:25;;;;;;;7.53;5.50;;;;;;;22.02;49.01;95309.47;5030725;28;20021;-78
2023/09/06 10:31:52;;;;;;;8.18;5.32;;;;;;;22.27;49.16;95312.63;5034401;28;20040;-78
2023/09/06 10:34:18;;;;;;;6.95;4.90;;;;;;;22.45;47.14;95309.53;5016242;28;20064;-78
2023/09/06 10:36:57;;;;;;;7.68;4.75;;;;;;;22.69;45.94;95280.03;5051639;28;20032;-78
2023/09/06 10:39:25;;;;;;;6.43;5.10;;;;;;;22.77;48.05;95310.06;5043077;28;20033;-78
2023/09/06 10:42:09;;;;;;;6.13;4.97;;;;;;;23.20;48.57;95303.69;5037903;28;20048;-78
2023/09/06 10:44:53;;;;;;;7.15;4.93;;;;;;;23.27;46.60;95305.56;5051433;28;20025;-79
2023/09/06 10:47:28;;;;;;;7.65;4.72;;;;;;;23.19;46.68;95295.94;5049780;28;20048;-78
2023/09/06 10:50:15;;;;;;;6.65;4.85;;;;;;;23.56;46.56;95299.22;5050280;28;20095;-78
2023/09/06 10:52:49;;;;;;;7.03;4.90;;;;;;;23.61;46.80;95288.84;5062725;28;20033;-78
2023/09/06 10:55:20;;;;;;;8.40;4.50;;;;;;;23.69;44.59;95298.47;5051162;28;20071;-78
2023/09/06 10:57:54;;;;;;;5.28;4.78;;;;;;;23.35;43.18;95292.19;5023153;28;20367;-79
2023/09/06 11:00:27;;;;;;;8.07;4.93;;;;;;;23.40;44.39;95289.72;5033954;28;20037;-78
2023/09/06 11:03:04;;;;;;;8.05;4.78;;;;;;;23.50;42.53;95298.16;5043546;28;20039;-78
2023/09/06 11:05:32;;;;;;;7.07;5.00;;;;;;;23.56;43.49;95286.78;5070999;28;20116;-78
2023/09/06 11:07:57;;;;;;;7.45;4.80;;;;;;;23.77;43.58;95288.56;5024181;28;20025;-78
2023/09/06 11:10:23;;;;;;;7.57;5.07;;;;;;;23.75;45.36;95285.28;5044007;28;20491;-79
2023/09/06 11:12:48;;;;;;;6.18;5.18;;;;;;;23.68;44.78;95284.41;5019341;28;20039;-79
2023/09/06 11:15:14;;;;;;;5.53;4.93;;;;;;;23.74;44.02;95288.13;5048417;28;20029;-79
2023/09/06 11:17:40;;;;;;;9.63;5.47;;;;;;;23.70;44.00;95265.63;5041257;28;21359;-78
2023/09/06 11:20:12;;;;;;;9.38;5.60;;;;;;;23.61;42.33;95284.34;5048019;28;20032;-78
2023/09/06 11:22:48;;;;;;;6.60;5.32;;;;;;;23.76;43.58;95259.56;5017302;28;20025;-78
2023/09/06 11:25:17;;;;;;;9.50;5.28;;;;;;;23.67;43.76;95277.44;5021734;28;20491;-78
2023/09/06 11:27:45;;;;;;;7.43;4.80;;;;;;;23.66;43.34;95269.72;5031340;28;20419;-78
2023/09/06 11:30:15;;;;;;;7.68;5.03;;;;;;;23.70;43.87;95260.31;5015947;28;20033;-78
2023/09/06 11:32:41;;;;;;;;;;;;;;;24.01;41.82;95265.97;5051390;28;20037;-78
2023/09/06 11:35:08;;;;;;;5.93;5.10;;;;;;;23.85;43.42;95258.41;5053582;28;19927;-78